Time;durP1;ratioP1;P1;durP2;ratioP2;P2;SDS_P1;SDS_P2;PMS_P1;PMS_P2;Temp;Humidity;BMP_temperature;BMP_pressure;BME280_temperature;BME280_humidity;BME280_pressure;Samples;Min_cycle;Max_cycle;Signal;HPM_P1;HPM_P2
2023/08/24 00:01:32;;;;;;;8.82;5.68;;;;;;;;;;5108255;28;20085;-84
2023/08/24 00:03:57;;;;;;;7.93;5.38;;;;;;;;;;5096960;28;20036;-84
2023/08/24 00:06:23;;;;;;;10.00;5.47;;;;;;;;;;5096549;28;20106;-84
2023/08/24 00:08:48;;;;;;;9.68;5.18;;;;;;;;;;5097995;28;20088;-84
2023/08/24 00:11:14;;;;;;;8.50;5.57;;;;;;;;;;5104590;28;20119;-84
2023/08/24 00:13:46;;;;;;;10.85;5.70;;;;;;;;;;5100295;28;20040;-83
2023/08/24 00:16:11;;;;;;;7.82;5.53;;;;;;;;;;5088632;28;20039;-84
2023/08/24 00:18:37;;;;;;;9.07;5.78;;;;;;;;;;5092730;28;20040;-84
2023/08/24 00:21:02;;;;;;;9.20;5.55;;;;;;;;;;5098698;28;20084;-84
2023/08/24 00:23:28;;;;;;;7.68;5.57;;;;;;;;;;5099516;28;20048;-84
2023/08/24 00:25:53;;;;;;;9.95;5.43;;;;;;;;;;5092824;28;20031;-84
2023/08/24 00:28:19;;;;;;;8.07;5.72;;;;;;;;;;5088779;28;20492;-85
2023/08/24 00:30:44;;;;;;;9.25;5.72;;;;;;;;;;5100158;28;20020;-85
2023/08/24 00:33:10;;;;;;;9.38;5.55;;;;;;;;;;5097412;28;20039;-84
2023/08/24 00:35:36;;;;;;;7.03;5.53;;;;;;;;;;5092698;28;20111;-84
2023/08/24 00:38:02;;;;;;;7.32;5.57;;;;;;;;;;5077183;28;20050;-84
2023/08/24 00:40:27;;;;;;;7.63;5.90;;;;;;;;;;5085456;28;20047;-85
2023/08/24 00:42:53;;;;;;;9.90;5.88;;;;;;;;;;5098580;28;20043;-85
2023/08/24 00:45:18;;;;;;;10.05;5.80;;;;;;;;;;5093048;28;20028;-86
2023/08/24 00:47:47;;;;;;;10.93;5.75;;;;;;;;;;5091520;28;20020;-84
2023/08/24 00:50:14;;;;;;;6.55;5.47;;;;;;;;;;5078587;28;20055;-84
2023/08/24 00:52:41;;;;;;;10.63;5.80;;;;;;;;;;5094914;28;20381;-84
2023/08/24 00:55:08;;;;;;;10.38;5.70;;;;;;;;;;5093432;28;20039;-84
2023/08/24 00:57:34;;;;;;;11.68;6.13;;;;;;;;;;5122588;27;20031;-84
2023/08/24 01:00:03;;;;;;;8.32;5.75;;;;;;;;;;5111872;28;20032;-85
2023/08/24 01:02:28;;;;;;;9.07;5.75;;;;;;;;;;5098845;28;20110;-85
2023/08/24 01:04:54;;;;;;;11.00;5.80;;;;;;;;;;5099235;28;20032;-85
2023/08/24 01:07:20;;;;;;;10.95;6.30;;;;;;;;;;5099988;28;20028;-84
2023/08/24 01:09:47;;;;;;;11.50;6.03;;;;;;;;;;5105164;28;20101;-85
2023/08/24 01:12:18;;;;;;;8.30;5.47;;;;;;;;;;5080137;28;20037;-84
2023/08/24 01:14:59;;;;;;;7.68;5.80;;;;;;;;;;5083795;28;20021;-84
2023/08/24 01:17:28;;;;;;;10.80;6.20;;;;;;;;;;5098272;28;20040;-85
2023/08/24 01:19:55;;;;;;;8.77;6.20;;;;;;;;;;5119006;27;20080;-85
2023/08/24 01:22:31;;;;;;;9.82;6.00;;;;;;;;;;5097516;28;20039;-85
2023/08/24 01:25:30;;;;;;;7.70;5.78;;;;;;;;;;5094350;28;20028;-84
2023/08/24 01:27:55;;;;;;;9.18;6.05;;;;;;;;;;5075502;28;20064;-85
2023/08/24 01:30:21;;;;;;;8.77;6.03;;;;;;;;;;5097887;28;20020;-84
2023/08/24 01:32:46;;;;;;;9.13;5.80;;;;;;;;;;5115011;27;20059;-85
2023/08/24 01:35:12;;;;;;;8.15;6.15;;;;;;;;;;5082501;28;20028;-85
2023/08/24 01:37:38;;;;;;;9.50;6.38;;;;;;;;;;5091373;28;20189;-85
2023/08/24 01:40:13;;;;;;;9.45;6.10;;;;;;;;;;5090399;28;20085;-85
2023/08/24 01:42:53;;;;;;;9.75;6.50;;;;;;;;;;5098612;28;20036;-84
2023/08/24 01:45:23;;;;;;;9.02;5.60;;;;;;;;;;5096626;28;20028;-85
2023/08/24 01:47:50;;;;;;;9.43;6.40;;;;;;;;;;5079633;28;20115;-85
2023/08/24 01:50:16;;;;;;;9.18;5.80;;;;;;;;;;5089707;28;20035;-84
2023/08/24 01:52:42;;;;;;;7.85;5.20;;;;;;;;;;5096508;28;20024;-84
2023/08/24 01:55:08;;;;;;;10.20;5.60;;;;;;;;;;5090457;28;20086;-84
2023/08/24 01:57:33;;;;;;;10.20;6.30;;;;;;;;;;5091003;28;20032;-84
2023/08/24 01:59:59;;;;;;;10.65;6.32;;;;;;;;;;5108058;28;20610;-84
2023/08/24 02:02:24;;;;;;;9.63;6.28;;;;;;;;;;5097913;28;20020;-84
2023/08/24 02:04:50;;;;;;;8.52;5.93;;;;;;;;;;5100025;28;20031;-84
2023/08/24 02:07:16;;;;;;;9.48;6.13;;;;;;;;;;5103870;28;20026;-84
2023/08/24 02:09:42;;;;;;;8.93;6.40;;;;;;;;;;5103451;28;20130;-84
2023/08/24 02:12:07;;;;;;;8.30;5.90;;;;;;;;;;5098073;28;20039;-84
2023/08/24 02:14:33;;;;;;;10.60;5.88;;;;;;;;;;5085373;28;20031;-84
2023/08/24 02:16:59;;;;;;;9.43;5.97;;;;;;;;;;5096000;28;20071;-84
2023/08/24 02:19:24;;;;;;;8.13;6.35;;;;;;;;;;5097294;28;20091;-84
2023/08/24 02:21:49;;;;;;;9.32;5.63;;;;;;;;;;5098170;28;20027;-85
2023/08/24 02:24:15;;;;;;;10.32;5.85;;;;;;;;;;5090847;28;20060;-84
2023/08/24 02:26:40;;;;;;;8.75;6.25;;;;;;;;;;5104642;27;20033;-84
2023/08/24 02:29:06;;;;;;;12.13;6.30;;;;;;;;;;5094878;28;20023;-84
2023/08/24 02:31:31;;;;;;;7.72;5.90;;;;;;;;;;5098139;28;20027;-85
2023/08/24 02:33:57;;;;;;;9.68;5.53;;;;;;;;;;5092233;28;20538;-84
2023/08/24 02:36:23;;;;;;;9.02;5.97;;;;;;;;;;5100539;27;20032;-84
2023/08/24 02:38:48;;;;;;;9.65;6.20;;;;;;;;;;5076627;28;20048;-85
2023/08/24 02:41:14;;;;;;;10.77;6.60;;;;;;;;;;5093251;28;20040;-85
2023/08/24 02:43:40;;;;;;;7.05;6.05;;;;;;;;;;5094015;28;20055;-85
2023/08/24 02:46:08;;;;;;;7.18;6.07;;;;;;;;;;5091449;28;20513;-85
2023/08/24 02:48:34;;;;;;;8.60;5.90;;;;;;;;;;5060686;28;20087;-84
2023/08/24 02:51:03;;;;;;;9.50;6.10;;;;;;;;;;5094322;28;20024;-84
2023/08/24 02:53:29;;;;;;;7.78;5.90;;;;;;;;;;5083569;28;20024;-85
2023/08/24 02:55:58;;;;;;;12.10;6.45;;;;;;;;;;5084840;28;20100;-84
2023/08/24 02:58:23;;;;;;;10.35;6.40;;;;;;;;;;5086060;28;20067;-85
2023/08/24 03:00:49;;;;;;;8.20;6.00;;;;;;;;;;5094331;28;20074;-84
2023/08/24 03:03:15;;;;;;;10.15;6.07;;;;;;;;;;5100370;28;20029;-84
2023/08/24 03:05:41;;;;;;;11.23;6.25;;;;;;;;;;5104669;28;20038;-84
2023/08/24 03:08:07;;;;;;;9.52;6.10;;;;;;;;;;5074995;28;20063;-84
2023/08/24 03:10:36;;;;;;;6.93;6.07;;;;;;;;;;5099765;28;20035;-84
2023/08/24 03:13:03;;;;;;;10.45;6.75;;;;;;;;;;5100467;28;20028;-84
2023/08/24 03:15:30;;;;;;;9.25;6.25;;;;;;;;;;5101828;28;20038;-84
2023/08/24 03:17:55;;;;;;;7.72;5.40;;;;;;;;;;5107689;28;20033;-85
2023/08/24 03:20:22;;;;;;;7.10;5.53;;;;;;;;;;5102529;28;20401;-84
2023/08/24 03:22:47;;;;;;;8.43;6.07;;;;;;;;;;5111527;27;20027;-85
2023/08/24 03:25:13;;;;;;;11.63;5.80;;;;;;;;;;5100678;28;20036;-84
2023/08/24 03:27:39;;;;;;;11.65;5.85;;;;;;;;;;5103799;28;20115;-84
2023/08/24 03:30:05;;;;;;;7.10;5.70;;;;;;;;;;5100196;28;20066;-85
2023/08/24 03:32:30;;;;;;;7.70;5.60;;;;;;;;;;5113878;27;20032;-84
2023/08/24 03:35:00;;;;;;;9.45;6.32;;;;;;;;;;5091852;28;20025;-84
2023/08/24 03:37:25;;;;;;;9.63;6.00;;;;;;;;;;5089135;28;20043;-84
2023/08/24 03:39:51;;;;;;;10.38;6.43;;;;;;;;;;5082612;28;20032;-83
2023/08/24 03:42:17;;;;;;;8.75;6.00;;;;;;;;;;5096843;28;20495;-83
2023/08/24 03:44:43;;;;;;;7.85;6.00;;;;;;;;;;5088450;28;20055;-83
2023/08/24 03:47:08;;;;;;;8.77;6.13;;;;;;;;;;5093451;28;20036;-84
2023/08/24 03:49:34;;;;;;;9.45;5.97;;;;;;;;;;5085226;28;20089;-84
2023/08/24 03:52:00;;;;;;;12.90;7.07;;;;;;;;;;5093020;28;20020;-85
2023/08/24 03:54:27;;;;;;;9.50;6.10;;;;;;;;;;5063786;28;20090;-85
2023/08/24 03:56:52;;;;;;;11.18;6.70;;;;;;;;;;5096376;28;20036;-84
2023/08/24 03:59:20;;;;;;;9.23;6.07;;;;;;;;;;5085523;28;20024;-83
2023/08/24 04:01:46;;;;;;;9.50;6.13;;;;;;;;;;5092334;28;20028;-83
2023/08/24 04:04:11;;;;;;;9.00;6.53;;;;;;;;;;5108858;28;20057;-83
2023/08/24 04:06:37;;;;;;;8.30;6.47;;;;;;;;;;5109053;28;20086;-85
2023/08/24 04:09:02;;;;;;;11.93;7.13;;;;;;;;;;5097955;28;20028;-85
2023/08/24 04:11:28;;;;;;;9.57;6.60;;;;;;;;;;5098099;28;20031;-86
2023/08/24 04:13:53;;;;;;;12.30;6.95;;;;;;;;;;5097174;28;20182;-85
2023/08/24 04:16:19;;;;;;;10.27;6.88;;;;;;;;;;5106404;28;20024;-85
2023/08/24 04:18:45;;;;;;;8.93;7.00;;;;;;;;;;5106383;28;20448;-85
2023/08/24 04:21:11;;;;;;;9.18;7.10;;;;;;;;;;5099887;28;20059;-85
2023/08/24 04:23:36;;;;;;;11.45;6.88;;;;;;;;;;5099239;28;20498;-85
2023/08/24 04:26:02;;;;;;;9.60;6.40;;;;;;;;;;5083484;28;20036;-85
2023/08/24 04:28:28;;;;;;;10.57;6.80;;;;;;;;;;5104207;28;20032;-85
2023/08/24 04:30:57;;;;;;;10.48;6.60;;;;;;;;;;5106667;28;20059;-86
2023/08/24 04:33:23;;;;;;;9.93;6.50;;;;;;;;;;5090913;28;20492;-85
2023/08/24 04:35:50;;;;;;;9.60;7.18;;;;;;;;;;5093822;28;20044;-85
2023/08/24 04:38:16;;;;;;;9.18;6.80;;;;;;;;;;5099662;28;20028;-85
2023/08/24 04:41:00;;;;;;;10.25;6.55;;;;;;;;;;5097947;28;20028;-85
2023/08/24 04:43:25;;;;;;;8.82;6.10;;;;;;;;;;5094973;28;20040;-85
2023/08/24 04:45:53;;;;;;;10.40;6.13;;;;;;;;;;5086885;28;20015;-85
2023/08/24 04:48:23;;;;;;;9.45;6.18;;;;;;;;;;5098776;28;20032;-85
2023/08/24 04:50:49;;;;;;;10.55;6.40;;;;;;;;;;5097138;28;20713;-86
2023/08/24 04:53:18;;;;;;;10.93;6.82;;;;;;;;;;5097683;28;20053;-85
2023/08/24 04:55:44;;;;;;;7.78;6.47;;;;;;;;;;5093446;28;20036;-86
2023/08/24 04:58:10;;;;;;;12.85;6.47;;;;;;;;;;5096586;28;20093;-85
2023/08/24 05:00:37;;;;;;;9.75;6.45;;;;;;;;;;5095755;28;20055;-86
2023/08/24 05:03:04;;;;;;;9.52;7.28;;;;;;;;;;5093489;28;20072;-85
2023/08/24 05:05:31;;;;;;;12.80;6.90;;;;;;;;;;5109043;28;20035;-86
2023/08/24 05:07:57;;;;;;;11.60;7.22;;;;;;;;;;5105321;28;20494;-85
2023/08/24 05:10:23;;;;;;;10.55;7.05;;;;;;;;;;5113793;28;20034;-86
2023/08/24 05:12:48;;;;;;;8.77;7.00;;;;;;;;;;5088530;28;20037;-85
2023/08/24 05:15:14;;;;;;;8.50;6.68;;;;;;;;;;5110217;28;20020;-86
2023/08/24 05:17:40;;;;;;;9.73;7.25;;;;;;;;;;5110631;28;20035;-84
2023/08/24 05:20:08;;;;;;;11.63;6.35;;;;;;;;;;5098983;28;20080;-86
2023/08/24 05:22:33;;;;;;;12.05;6.38;;;;;;;;;;5100810;28;20537;-86
2023/08/24 05:25:00;;;;;;;7.75;6.60;;;;;;;;;;5102990;28;20063;-86
2023/08/24 05:27:25;;;;;;;10.70;7.00;;;;;;;;;;5104044;28;20034;-85
2023/08/24 05:29:50;;;;;;;12.80;6.95;;;;;;;;;;5103359;28;20031;-86
2023/08/24 05:32:16;;;;;;;18.10;7.22;;;;;;;;;;5093048;28;20550;-86
2023/08/24 05:34:42;;;;;;;10.48;6.85;;;;;;;;;;5096293;28;20474;-87
2023/08/24 05:37:07;;;;;;;12.38;6.57;;;;;;;;;;5100111;28;20023;-86
2023/08/24 05:39:32;;;;;;;12.63;6.82;;;;;;;;;;5121215;28;20055;-84
2023/08/24 05:41:58;;;;;;;12.43;6.60;;;;;;;;;;5092306;28;20115;-84
2023/08/24 05:44:23;;;;;;;12.15;7.10;;;;;;;;;;5084379;28;20040;-84
2023/08/24 05:46:49;;;;;;;9.75;6.78;;;;;;;;;;5095864;28;20028;-85
2023/08/24 05:49:14;;;;;;;8.90;6.68;;;;;;;;;;5093480;28;20028;-85
2023/08/24 05:51:40;;;;;;;12.02;6.97;;;;;;;;;;5092337;28;20028;-85
2023/08/24 05:54:05;;;;;;;9.45;6.82;;;;;;;;;;5088179;28;20052;-85
2023/08/24 05:56:31;;;;;;;11.32;6.55;;;;;;;;;;5091263;28;20389;-84
2023/08/24 05:58:58;;;;;;;8.23;6.72;;;;;;;;;;5096451;28;20031;-84
2023/08/24 06:01:24;;;;;;;13.20;6.80;;;;;;;;;;5083481;28;20066;-85
2023/08/24 06:03:50;;;;;;;10.68;6.70;;;;;;;;;;5090558;28;20034;-85
2023/08/24 06:06:16;;;;;;;13.48;6.75;;;;;;;;;;5090441;28;20032;-86
2023/08/24 06:08:42;;;;;;;8.43;6.22;;;;;;;;;;5099562;28;20047;-85
2023/08/24 06:11:07;;;;;;;8.52;6.03;;;;;;;;;;5101659;28;20013;-84
2023/08/24 06:13:33;;;;;;;8.65;6.10;;;;;;;;;;5107457;28;20036;-84
2023/08/24 06:15:58;;;;;;;11.10;6.18;;;;;;;;;;5106611;28;20023;-85
2023/08/24 06:18:24;;;;;;;9.30;6.40;;;;;;;;;;5084660;28;20127;-84
2023/08/24 06:20:49;;;;;;;7.78;6.20;;;;;;;;;;5097100;28;20043;-84
2023/08/24 06:23:18;;;;;;;10.02;6.57;;;;;;;;;;5099070;28;20095;-86
2023/08/24 06:25:44;;;;;;;9.00;6.18;;;;;;;;;;5104090;28;20396;-86
2023/08/24 06:28:10;;;;;;;12.57;6.45;;;;;;;;;;5098493;28;20316;-86
2023/08/24 06:30:40;;;;;;;9.27;6.15;;;;;;;;;;5092749;28;20028;-84
2023/08/24 06:33:06;;;;;;;12.13;6.63;;;;;;;;;;5093519;28;20074;-84
2023/08/24 06:35:33;;;;;;;13.25;6.63;;;;;;;;;;5099882;28;20095;-84
2023/08/24 06:37:59;;;;;;;10.60;5.97;;;;;;;;;;5096648;28;20519;-84
2023/08/24 06:40:24;;;;;;;14.82;6.32;;;;;;;;;;5092247;28;20024;-84
2023/08/24 06:42:50;;;;;;;13.27;6.07;;;;;;;;;;5085857;28;20040;-86
2023/08/24 06:45:16;;;;;;;10.45;6.15;;;;;;;;;;5099453;28;20035;-86
2023/08/24 06:47:42;;;;;;;9.32;6.35;;;;;;;;;;5093755;28;20024;-85
2023/08/24 06:50:08;;;;;;;10.45;6.05;;;;;;;;;;5090422;28;20441;-84
2023/08/24 06:52:33;;;;;;;12.07;6.03;;;;;;;;;;5091337;28;20051;-84
2023/08/24 06:54:59;;;;;;;10.75;5.97;;;;;;;;;;5084395;28;20092;-84
2023/08/24 06:57:25;;;;;;;7.63;6.13;;;;;;;;;;5092592;28;20047;-84
2023/08/24 06:59:51;;;;;;;10.40;5.97;;;;;;;;;;5093596;28;20686;-84
2023/08/24 07:02:17;;;;;;;9.35;6.22;;;;;;;;;;5088284;28;20034;-86
2023/08/24 07:04:43;;;;;;;16.00;6.20;;;;;;;;;;5088002;28;20044;-85
2023/08/24 07:07:09;;;;;;;8.38;5.70;;;;;;;;;;5090138;28;20031;-84
2023/08/24 07:09:35;;;;;;;15.57;6.15;;;;;;;;;;5102409;28;20042;-84
2023/08/24 07:12:03;;;;;;;11.93;5.78;;;;;;;;;;5106211;28;20028;-84
2023/08/24 07:14:28;;;;;;;9.75;5.47;;;;;;;;;;5108120;28;20036;-85
2023/08/24 07:16:54;;;;;;;9.27;5.78;;;;;;;;;;5100033;28;20027;-84
2023/08/24 07:19:20;;;;;;;8.60;5.40;;;;;;;;;;5095482;28;20032;-86
2023/08/24 07:21:46;;;;;;;16.25;6.05;;;;;;;;;;5099038;28;20040;-86
2023/08/24 07:24:11;;;;;;;9.23;5.22;;;;;;;;;;5106228;28;20043;-86
2023/08/24 07:26:37;;;;;;;10.38;5.75;;;;;;;;;;5096785;28;20032;-85
2023/08/24 07:29:02;;;;;;;10.85;5.65;;;;;;;;;;5093866;28;20393;-85
2023/08/24 07:31:28;;;;;;;8.00;5.45;;;;;;;;;;5092283;28;20025;-85
2023/08/24 07:33:53;;;;;;;7.57;5.53;;;;;;;;;;5096516;28;20028;-85
2023/08/24 07:36:19;;;;;;;9.07;5.57;;;;;;;;;;5100660;28;20027;-85
2023/08/24 07:38:47;;;;;;;8.10;5.40;;;;;;;;;;5098478;28;20035;-87
2023/08/24 07:41:12;;;;;;;8.48;5.55;;;;;;;;;;5093272;28;20561;-87
2023/08/24 07:43:38;;;;;;;12.35;5.93;;;;;;;;;;5089798;28;20027;-86
2023/08/24 07:46:04;;;;;;;13.32;5.78;;;;;;;;;;5096123;28;20036;-85
2023/08/24 07:48:30;;;;;;;13.98;5.68;;;;;;;;;;5092886;28;20036;-85
2023/08/24 07:50:55;;;;;;;9.38;5.47;;;;;;;;;;5090017;28;20357;-85
2023/08/24 07:53:21;;;;;;;9.10;5.53;;;;;;;;;;5082408;28;20027;-84
2023/08/24 07:55:47;;;;;;;11.98;5.57;;;;;;;;;;5094549;28;20028;-86
2023/08/24 07:58:13;;;;;;;11.52;5.50;;;;;;;;;;5093728;28;20079;-86
2023/08/24 08:00:39;;;;;;;8.00;5.28;;;;;;;;;;5092484;28;20036;-87
2023/08/24 08:03:04;;;;;;;10.27;5.65;;;;;;;;;;5089007;28;20047;-84
2023/08/24 08:05:30;;;;;;;10.00;5.55;;;;;;;;;;5088851;28;20115;-86
2023/08/24 08:07:55;;;;;;;10.70;5.57;;;;;;;;;;5093780;28;20036;-85
2023/08/24 08:10:21;;;;;;;7.47;5.30;;;;;;;;;;5108678;28;20035;-85
2023/08/24 08:12:47;;;;;;;10.32;6.20;;;;;;;;;;5106915;28;20435;-86
2023/08/24 08:15:12;;;;;;;11.52;5.53;;;;;;;;;;5100235;28;20032;-86
2023/08/24 08:17:38;;;;;;;11.18;5.75;;;;;;;;;;5110857;28;20032;-86
2023/08/24 08:20:04;;;;;;;11.20;5.57;;;;;;;;;;5099851;28;20037;-85
2023/08/24 08:22:30;;;;;;;11.77;5.60;;;;;;;;;;5106079;28;20035;-85
2023/08/24 08:24:56;;;;;;;12.20;5.85;;;;;;;;;;5105637;28;20036;-86
2023/08/24 08:27:22;;;;;;;8.75;5.50;;;;;;;;;;5094449;28;20035;-86
2023/08/24 08:29:48;;;;;;;13.70;5.60;;;;;;;;;;5095843;28;20487;-86
2023/08/24 08:32:13;;;;;;;8.07;5.43;;;;;;;;;;5079404;28;20029;-87
2023/08/24 08:34:39;;;;;;;10.93;5.57;;;;;;;;;;5097340;28;20036;-86
2023/08/24 08:37:04;;;;;;;10.05;5.90;;;;;;;;;;5097773;28;20465;-85
2023/08/24 08:39:32;;;;;;;8.63;5.60;;;;;;;;;;5089980;28;20043;-85
2023/08/24 08:41:57;;;;;;;8.57;5.65;;;;;;;;;;5091618;28;20650;-85
2023/08/24 08:44:26;;;;;;;11.85;5.63;;;;;;;;;;5099945;28;20032;-85
2023/08/24 08:46:52;;;;;;;13.13;5.40;;;;;;;;;;5095282;28;20040;-85
2023/08/24 08:49:19;;;;;;;9.80;5.88;;;;;;;;;;5091526;28;20031;-86
2023/08/24 08:51:44;;;;;;;10.32;5.97;;;;;;;;;;5097677;28;20505;-86
2023/08/24 08:54:11;;;;;;;9.13;5.43;;;;;;;;;;5095772;28;20039;-87
2023/08/24 08:56:37;;;;;;;7.95;5.43;;;;;;;;;;5091867;28;20016;-86
2023/08/24 08:59:11;;;;;;;10.05;5.63;;;;;;;;;;5095412;28;20040;-86
2023/08/24 09:01:37;;;;;;;9.05;5.70;;;;;;;;;;5084369;28;20508;-85
2023/08/24 09:04:06;;;;;;;15.95;5.53;;;;;;;;;;5093297;28;20021;-85
2023/08/24 09:06:31;;;;;;;10.60;5.68;;;;;;;;;;5092960;28;20031;-84
2023/08/24 09:08:57;;;;;;;8.05;5.88;;;;;;;;;;5090424;28;20106;-85
2023/08/24 09:11:23;;;;;;;6.38;4.97;;;;;;;;;;5102340;28;20027;-86
2023/08/24 09:13:49;;;;;;;7.50;5.40;;;;;;;;;;5100184;28;20471;-87
2023/08/24 09:16:16;;;;;;;8.40;5.75;;;;;;;;;;5099865;28;20489;-86
2023/08/24 09:18:44;;;;;;;11.55;5.65;;;;;;;;;;5100855;28;20031;-86
2023/08/24 09:21:12;;;;;;;11.50;5.90;;;;;;;;;;5104399;28;20036;-84
2023/08/24 09:23:42;;;;;;;8.18;5.57;;;;;;;;;;5103626;28;20470;-84
2023/08/24 09:26:08;;;;;;;12.43;5.95;;;;;;;;;;5097323;28;20028;-86
2023/08/24 09:28:36;;;;;;;9.05;5.78;;;;;;;;;;5097532;28;20041;-85
2023/08/24 09:31:02;;;;;;;8.48;5.63;;;;;;;;;;5102232;28;20043;-86
2023/08/24 09:33:29;;;;;;;11.35;5.55;;;;;;;;;;5100067;28;20043;-88
2023/08/24 09:36:01;;;;;;;7.22;5.30;;;;;;;;;;5098701;28;20031;-87
2023/08/24 09:38:26;;;;;;;10.10;6.07;;;;;;;;;;5094532;28;20043;-88
2023/08/24 09:40:54;;;;;;;10.55;5.78;;;;;;;;;;5103966;28;20031;-85
2023/08/24 09:43:20;;;;;;;12.38;6.25;;;;;;;;;;5102052;28;20032;-84
2023/08/24 09:45:54;;;;;;;8.90;5.78;;;;;;;;;;5091526;28;20367;-85
2023/08/24 09:48:20;;;;;;;9.30;6.05;;;;;;;;;;5091265;28;20125;-85
2023/08/24 09:50:48;;;;;;;7.82;5.53;;;;;;;;;;5108200;28;20409;-86
2023/08/24 09:53:23;;;;;;;9.18;5.45;;;;;;;;;;5098619;28;20040;-86
2023/08/24 09:55:55;;;;;;;10.75;5.88;;;;;;;;;;5098474;28;20046;-87
2023/08/24 09:58:22;;;;;;;9.60;6.10;;;;;;;;;;5102469;28;20062;-88
2023/08/24 10:00:49;;;;;;;10.85;5.82;;;;;;;;;;5099411;28;20103;-89
2023/08/24 10:03:20;;;;;;;8.20;6.28;;;;;;;;;;5097741;28;20032;-87
2023/08/24 10:05:59;;;;;;;10.40;6.40;;;;;;;;;;5089420;28;20033;-85
2023/08/24 10:08:27;;;;;;;13.15;6.30;;;;;;;;;;5078455;28;20028;-85
2023/08/24 10:10:58;;;;;;;9.05;5.97;;;;;;;;;;5082846;28;20119;-85
2023/08/24 10:13:31;;;;;;;11.57;6.20;;;;;;;;;;5101493;28;20698;-85
2023/08/24 10:15:57;;;;;;;11.50;5.72;;;;;;;;;;5101574;28;20107;-85
2023/08/24 10:18:23;;;;;;;9.27;5.55;;;;;;;;;;5100612;28;20043;-85
2023/08/24 10:20:49;;;;;;;9.65;5.50;;;;;;;;;;5107903;28;20482;-84
2023/08/24 10:23:16;;;;;;;9.57;5.18;;;;;;;;;;5099902;28;20036;-86
2023/08/24 10:25:44;;;;;;;9.70;5.32;;;;;;;;;;5094750;28;20092;-85
2023/08/24 10:28:11;;;;;;;9.15;5.45;;;;;;;;;;5101692;28;20088;-86
2023/08/24 10:30:37;;;;;;;9.68;5.47;;;;;;;;;;5103130;28;20019;-84
2023/08/24 10:33:05;;;;;;;10.43;5.97;;;;;;;;;;5102569;28;20028;-85
2023/08/24 10:35:31;;;;;;;7.40;5.00;;;;;;;;;;5096203;28;20496;-87
2023/08/24 10:37:59;;;;;;;13.10;6.15;;;;;;;;;;5089217;28;20477;-85
2023/08/24 10:40:35;;;;;;;14.15;5.85;;;;;;;;;;5090443;28;20478;-85
2023/08/24 10:43:07;;;;;;;10.23;5.43;;;;;;;;;;5089811;28;20063;-84
2023/08/24 10:45:57;;;;;;;11.73;5.80;;;;;;;;;;5091330;28;20066;-85
2023/08/24 10:48:27;;;;;;;9.77;5.40;;;;;;;;;;5094981;28;20120;-87
2023/08/24 10:51:21;;;;;;;7.00;5.43;;;;;;;;;;5096189;28;20024;-87
2023/08/24 10:53:47;;;;;;;11.48;5.40;;;;;;;;;;5090145;28;20036;-85
2023/08/24 10:56:17;;;;;;;12.63;5.45;;;;;;;;;;5097419;28;20115;-85
2023/08/24 10:58:44;;;;;;;12.52;5.90;;;;;;;;;;5087117;28;20096;-87
2023/08/24 11:01:17;;;;;;;8.93;5.45;;;;;;;;;;5084873;28;20101;-87
2023/08/24 11:03:49;;;;;;;14.13;5.68;;;;;;;;;;5105140;28;20110;-87
2023/08/24 11:06:22;;;;;;;14.57;5.40;;;;;;;;;;5089880;28;20029;-88
2023/08/24 11:08:49;;;;;;;12.40;5.55;;;;;;;;;;5089638;28;20040;-88
2023/08/24 11:11:27;;;;;;;10.88;5.28;;;;;;;;;;5093278;28;20431;-87
2023/08/24 11:14:19;;;;;;;8.40;5.50;;;;;;;;;;5098152;28;20031;-86
2023/08/24 11:16:48;;;;;;;9.40;5.35;;;;;;;;;;5100381;28;20027;-88
2023/08/24 11:19:15;;;;;;;11.85;5.63;;;;;;;;;;5106116;28;20123;-87
2023/08/24 11:21:45;;;;;;;11.65;5.57;;;;;;;;;;5105044;28;20389;-86
2023/08/24 11:24:17;;;;;;;6.50;4.93;;;;;;;;;;5100710;28;20069;-86
2023/08/24 11:26:44;;;;;;;7.90;5.00;;;;;;;;;;5101458;28;20032;-85
2023/08/24 11:29:10;;;;;;;8.88;5.20;;;;;;;;;;5104352;28;20035;-86
2023/08/24 11:31:37;;;;;;;10.68;5.53;;;;;;;;;;5107376;28;20023;-85
2023/08/24 11:34:04;;;;;;;9.82;5.45;;;;;;;;;;5089119;28;20027;-87
2023/08/24 11:36:31;;;;;;;8.95;5.88;;;;;;;;;;5106889;28;20100;-87
2023/08/24 11:38:58;;;;;;;10.77;5.70;;;;;;;;;;5106761;28;20044;-87
2023/08/24 11:41:24;;;;;;;12.20;5.78;;;;;;;;;;5109392;28;20028;-87
2023/08/24 11:43:59;;;;;;;12.13;5.70;;;;;;;;;;5104788;28;20034;-86
2023/08/24 11:46:24;;;;;;;11.07;5.60;;;;;;;;;;5098018;28;20044;-84
2023/08/24 11:48:50;;;;;;;10.25;5.47;;;;;;;;;;5102921;28;20020;-85
2023/08/24 11:51:16;;;;;;;9.63;5.43;;;;;;;;;;5095480;28;20473;-86
2023/08/24 11:53:43;;;;;;;10.30;5.13;;;;;;;;;;5107605;28;20054;-87
2023/08/24 11:56:11;;;;;;;9.88;5.63;;;;;;;;;;5084219;28;20049;-85
2023/08/24 11:58:40;;;;;;;7.75;5.25;;;;;;;;;;5095075;28;20057;-88
2023/08/24 12:01:09;;;;;;;11.07;5.60;;;;;;;;;;5100022;28;20034;-85
2023/08/24 12:03:36;;;;;;;10.02;5.50;;;;;;;;;;5094215;28;20035;-87
2023/08/24 12:06:08;;;;;;;11.55;5.32;;;;;;;;;;5102234;28;20035;-86
2023/08/24 12:08:38;;;;;;;11.43;5.53;;;;;;;;;;5107702;28;20036;-87
2023/08/24 12:11:16;;;;;;;9.73;5.20;;;;;;;;;;5086765;28;20023;-87
2023/08/24 12:13:50;;;;;;;8.13;5.40;;;;;;;;;;5107813;28;20028;-86
2023/08/24 12:16:17;;;;;;;9.48;5.10;;;;;;;;;;5104943;28;20046;-85
2023/08/24 12:18:54;;;;;;;10.43;5.30;;;;;;;;;;5086908;28;20064;-86
2023/08/24 12:21:21;;;;;;;8.15;5.57;;;;;;;;;;5102514;28;20034;-87
2023/08/24 12:24:05;;;;;;;9.32;5.35;;;;;;;;;;5105589;28;20035;-87
2023/08/24 12:26:32;;;;;;;11.20;5.47;;;;;;;;;;5096954;28;20194;-87
2023/08/24 12:29:08;;;;;;;9.13;5.45;;;;;;;;;;5099291;28;20549;-87
2023/08/24 12:31:35;;;;;;;11.57;5.43;;;;;;;;;;5104430;28;20088;-85
2023/08/24 12:34:08;;;;;;;12.50;5.63;;;;;;;;;;5102769;28;20028;-87
2023/08/24 12:36:37;;;;;;;8.73;5.70;;;;;;;;;;5100100;28;20110;-86
2023/08/24 12:39:04;;;;;;;10.05;5.60;;;;;;;;;;5104674;28;20087;-88
2023/08/24 12:41:30;;;;;;;10.18;5.72;;;;;;;;;;5108361;28;20028;-85
2023/08/24 12:43:56;;;;;;;13.38;5.88;;;;;;;;;;5090836;28;20035;-87
2023/08/24 12:46:22;;;;;;;12.77;5.32;;;;;;;;;;5098322;28;20474;-84
2023/08/24 12:48:47;;;;;;;12.75;5.20;;;;;;;;;;5096102;28;20039;-86
2023/08/24 12:51:13;;;;;;;9.38;5.50;;;;;;;;;;5100024;28;20820;-85
2023/08/24 12:53:38;;;;;;;10.57;5.00;;;;;;;;;;5087254;28;20107;-85
2023/08/24 12:56:04;;;;;;;8.65;5.20;;;;;;;;;;5092146;28;20063;-86
2023/08/24 12:58:30;;;;;;;12.40;5.30;;;;;;;;;;5087663;28;20036;-86
2023/08/24 13:00:55;;;;;;;18.90;5.25;;;;;;;;;;5103186;28;20016;-87
2023/08/24 13:03:21;;;;;;;11.50;5.57;;;;;;;;;;5092166;28;20111;-86
2023/08/24 13:05:47;;;;;;;14.55;5.22;;;;;;;;;;5097260;28;20370;-85
2023/08/24 13:08:13;;;;;;;11.05;5.22;;;;;;;;;;5098803;28;20054;-87
2023/08/24 13:10:38;;;;;;;8.65;5.30;;;;;;;;;;5098081;28;20438;-84
2023/08/24 13:13:04;;;;;;;13.40;5.15;;;;;;;;;;5086932;28;20377;-85
2023/08/24 13:15:30;;;;;;;8.68;5.20;;;;;;;;;;5097630;28;20105;-84
2023/08/24 13:17:56;;;;;;;7.60;4.80;;;;;;;;;;5087507;28;20028;-89
2023/08/24 13:20:21;;;;;;;10.27;5.25;;;;;;;;;;5103692;28;20824;-88
2023/08/24 13:22:47;;;;;;;7.95;5.10;;;;;;;;;;5097865;28;20026;-83
2023/08/24 13:25:12;;;;;;;8.32;4.75;;;;;;;;;;5106628;28;20028;-83
2023/08/24 13:27:38;;;;;;;9.63;5.03;;;;;;;;;;5111454;28;20012;-81
2023/08/24 13:30:04;;;;;;;8.93;5.05;;;;;;;;;;5102992;28;20516;-80
2023/08/24 13:32:29;;;;;;;8.38;5.07;;;;;;;;;;5096706;28;20043;-83
2023/08/24 13:34:55;;;;;;;9.30;5.10;;;;;;;;;;5099389;28;20066;-81
2023/08/24 13:37:22;;;;;;;9.35;5.13;;;;;;;;;;5101611;28;20043;-83
2023/08/24 13:39:47;;;;;;;10.25;4.90;;;;;;;;;;5105310;28;20115;-84
2023/08/24 13:42:13;;;;;;;14.45;5.40;;;;;;;;;;5096205;28;20060;-84
2023/08/24 13:44:39;;;;;;;10.25;4.97;;;;;;;;;;5099472;28;20031;-85
2023/08/24 13:47:04;;;;;;;14.52;5.60;;;;;;;;;;5112234;27;20024;-85
2023/08/24 13:49:30;;;;;;;11.13;5.10;;;;;;;;;;5103142;28;20105;-84
2023/08/24 13:51:55;;;;;;;9.80;4.97;;;;;;;;;;5097850;28;20024;-85
2023/08/24 13:54:21;;;;;;;10.63;5.05;;;;;;;;;;5094881;28;20044;-86
2023/08/24 13:56:48;;;;;;;8.85;5.15;;;;;;;;;;5093267;28;20025;-84
2023/08/24 13:59:14;;;;;;;11.02;5.22;;;;;;;;;;5096444;28;20040;-83
2023/08/24 14:01:41;;;;;;;9.13;4.93;;;;;;;;;;5099552;28;20040;-82
2023/08/24 14:04:07;;;;;;;8.20;5.32;;;;;;;;;;5095952;28;20036;-82
2023/08/24 14:06:37;;;;;;;8.88;5.30;;;;;;;;;;5090423;28;20031;-85
2023/08/24 14:09:04;;;;;;;17.85;5.22;;;;;;;;;;5099126;28;20036;-85
2023/08/24 14:11:30;;;;;;;11.73;5.45;;;;;;;;;;5093008;28;20023;-84
2023/08/24 14:13:56;;;;;;;10.85;4.88;;;;;;;;;;5093027;28;20164;-85
2023/08/24 14:16:21;;;;;;;14.45;5.32;;;;;;;;;;5087058;28;20044;-85
2023/08/24 14:18:48;;;;;;;10.70;5.25;;;;;;;;;;5109340;28;20493;-83
2023/08/24 14:21:14;;;;;;;11.85;5.40;;;;;;;;;;5103275;28;20035;-84
2023/08/24 14:23:41;;;;;;;10.07;5.60;;;;;;;;;;5107735;28;20047;-82
2023/08/24 14:26:07;;;;;;;10.10;5.32;;;;;;;;;;5108804;28;20052;-84
2023/08/24 14:28:55;;;;;;;11.48;5.32;;;;;;;;;;5102848;28;20525;-84
2023/08/24 14:31:25;;;;;;;11.63;5.82;;;;;;;;;;5095308;28;20054;-83
2023/08/24 14:33:51;;;;;;;17.17;5.78;;;;;;;;;;5097653;28;20395;-83
2023/08/24 14:36:19;;;;;;;10.10;5.30;;;;;;;;;;5097901;28;20021;-87